createdAt,value
2023-05-05T00:00:55.352Z,8.67
2023-05-05T00:01:55.395Z,8.64
2023-05-05T00:02:55.639Z,8.60
2023-05-05T00:03:55.428Z,8.58
2023-05-05T00:04:55.416Z,8.60
2023-05-05T00:05:55.413Z,8.61
2023-05-05T00:06:55.433Z,8.64
2023-05-05T00:07:55.446Z,8.64
2023-05-05T00:08:55.462Z,8.61
2023-05-05T00:09:55.477Z,8.61
2023-05-05T00:10:55.497Z,8.61
2023-05-05T00:11:55.510Z,8.61
2023-05-05T00:12:55.552Z,8.58
2023-05-05T00:13:55.557Z,8.55
2023-05-05T00:14:55.563Z,8.53
2023-05-05T00:15:55.579Z,8.53
2023-05-05T00:16:55.637Z,8.52
2023-05-05T00:17:55.620Z,8.52
2023-05-05T00:18:55.642Z,8.49
2023-05-05T00:19:55.636Z,8.46
2023-05-05T00:20:55.653Z,8.42
2023-05-05T00:21:55.665Z,8.38
2023-05-05T00:22:55.700Z,8.38
2023-05-05T00:23:55.704Z,8.37
2023-05-05T00:24:55.710Z,8.38
2023-05-05T00:25:55.717Z,8.38
2023-05-05T00:26:55.737Z,8.41
2023-05-05T00:27:55.767Z,8.42
2023-05-05T00:28:55.792Z,8.46
2023-05-05T00:29:55.778Z,8.51
2023-05-05T00:30:55.855Z,8.53
2023-05-05T00:31:55.806Z,8.53
2023-05-05T00:32:55.874Z,8.52
2023-05-05T00:33:55.840Z,8.49
2023-05-05T00:34:55.861Z,8.48
2023-05-05T00:35:55.902Z,8.45
2023-05-05T00:36:55.894Z,8.45
2023-05-05T00:37:55.928Z,8.44
2023-05-05T00:38:55.929Z,8.41
2023-05-05T00:39:55.944Z,8.33
2023-05-05T00:40:55.965Z,8.28
2023-05-05T00:41:55.986Z,8.23
2023-05-05T00:42:56.033Z,8.23
2023-05-05T00:43:56.015Z,8.18
2023-05-05T00:44:56.180Z,8.16
2023-05-05T00:45:56.055Z,8.13
2023-05-05T00:46:56.096Z,8.12
2023-05-05T00:47:56.144Z,8.09
2023-05-05T00:48:56.129Z,8.09
2023-05-05T00:49:56.117Z,8.09
2023-05-05T00:50:56.139Z,8.12
2023-05-05T00:51:56.164Z,8.13
2023-05-05T00:52:56.180Z,8.19
2023-05-05T00:53:56.183Z,8.20
2023-05-05T00:54:56.211Z,8.20
2023-05-05T00:55:56.237Z,8.20
2023-05-05T00:56:56.263Z,8.19
2023-05-05T00:57:56.248Z,8.18
2023-05-05T00:58:56.267Z,8.18
2023-05-05T00:59:56.303Z,8.18
2023-05-05T01:00:56.323Z,8.16
2023-05-05T01:01:56.421Z,8.13
2023-05-05T01:02:56.396Z,8.09
2023-05-05T01:03:56.379Z,8.08
2023-05-05T01:04:56.374Z,8.03
2023-05-05T01:05:56.407Z,8.00
2023-05-05T01:06:56.408Z,8.03
2023-05-05T01:07:56.429Z,8.00
2023-05-05T01:08:56.448Z,7.97
2023-05-05T01:10:10.967Z,7.94
2023-05-05T01:10:56.491Z,7.93
2023-05-05T01:11:56.474Z,7.90
2023-05-05T01:12:56.557Z,7.90
2023-05-05T01:13:56.525Z,7.91
2023-05-05T01:14:56.563Z,7.94
2023-05-05T01:15:56.572Z,7.93
2023-05-05T01:16:56.567Z,7.95
2023-05-05T01:17:56.620Z,7.94
2023-05-05T01:18:56.611Z,7.93
2023-05-05T01:19:56.640Z,7.93
2023-05-05T01:20:56.630Z,7.91
2023-05-05T01:21:56.648Z,7.93
2023-05-05T01:22:56.674Z,7.93
2023-05-05T01:23:56.703Z,7.91
2023-05-05T01:24:56.727Z,7.88
2023-05-05T01:25:56.731Z,7.87
2023-05-05T01:26:56.749Z,7.85
2023-05-05T01:27:56.761Z,7.82
2023-05-05T01:28:56.801Z,7.80
2023-05-05T01:29:56.793Z,7.79
2023-05-05T01:30:56.804Z,7.80
2023-05-05T01:31:57.024Z,7.80
2023-05-05T01:32:56.909Z,7.75
2023-05-05T01:33:56.874Z,7.76
2023-05-05T01:34:56.850Z,7.77
2023-05-05T01:35:56.872Z,7.79
2023-05-05T01:36:56.897Z,7.79
2023-05-05T01:37:56.929Z,7.79
2023-05-05T01:38:56.941Z,7.77
2023-05-05T01:39:56.933Z,7.77
2023-05-05T01:40:56.953Z,7.79
2023-05-05T01:41:56.991Z,7.73
2023-05-05T01:42:57.006Z,7.72
2023-05-05T01:43:57.012Z,7.72
2023-05-05T01:44:57.027Z,7.70
2023-05-05T01:45:57.109Z,7.73
2023-05-05T01:46:57.061Z,7.76
2023-05-05T01:47:57.138Z,7.77
2023-05-05T01:48:57.097Z,7.77
2023-05-05T01:49:57.115Z,7.77
2023-05-05T01:50:57.124Z,7.77
2023-05-05T01:51:57.151Z,7.80
2023-05-05T01:52:57.165Z,7.82
2023-05-05T01:53:57.183Z,7.83
2023-05-05T01:54:57.192Z,7.87
2023-05-05T01:55:57.217Z,7.87
2023-05-05T01:56:57.235Z,7.88
2023-05-05T01:57:57.252Z,7.87
2023-05-05T01:58:57.270Z,7.83
2023-05-05T01:59:57.292Z,7.85
2023-05-05T02:00:57.366Z,7.80
2023-05-05T02:01:57.331Z,7.80
2023-05-05T02:02:57.491Z,7.80
2023-05-05T02:03:57.428Z,7.82
2023-05-05T02:04:57.371Z,7.80
2023-05-05T02:05:57.405Z,7.79
2023-05-05T02:06:57.407Z,7.73
2023-05-05T02:07:57.430Z,7.72
2023-05-05T02:08:57.444Z,7.69
2023-05-05T02:09:57.468Z,7.67
2023-05-05T02:10:57.512Z,7.69
2023-05-05T02:11:57.503Z,7.69
2023-05-05T02:12:57.560Z,7.69
2023-05-05T02:13:57.570Z,7.72
2023-05-05T02:14:57.568Z,7.70
2023-05-05T02:15:57.644Z,7.69
2023-05-05T02:16:57.593Z,7.67
2023-05-05T02:17:57.624Z,7.61
2023-05-05T02:18:57.604Z,7.60
2023-05-05T02:19:57.652Z,7.57
2023-05-05T02:20:57.637Z,7.57
2023-05-05T02:21:57.660Z,7.54
2023-05-05T02:22:57.685Z,7.53
2023-05-05T02:23:57.693Z,7.50
2023-05-05T02:24:57.722Z,7.48
2023-05-05T02:25:57.725Z,7.45
2023-05-05T02:26:57.762Z,7.47
2023-05-05T02:27:57.792Z,7.47
2023-05-05T02:28:57.792Z,7.51
2023-05-05T02:29:57.803Z,7.54
2023-05-05T02:30:57.846Z,7.56
2023-05-05T02:31:57.831Z,7.57
2023-05-05T02:32:57.877Z,7.60
2023-05-05T02:33:57.906Z,7.61
2023-05-05T02:34:57.885Z,7.67
2023-05-05T02:35:57.910Z,7.73
2023-05-05T02:36:57.910Z,7.75
2023-05-05T02:37:57.929Z,7.76
2023-05-05T02:38:57.972Z,7.77
2023-05-05T02:39:57.961Z,7.80
2023-05-05T02:40:57.974Z,7.80
2023-05-05T02:41:58.020Z,7.79
2023-05-05T02:42:58.068Z,7.76
2023-05-05T02:43:58.055Z,7.73
2023-05-05T02:44:58.041Z,7.69
2023-05-05T02:45:58.071Z,7.66
2023-05-05T02:46:58.094Z,7.61
2023-05-05T02:47:58.143Z,7.61
2023-05-05T02:49:04.133Z,7.61
2023-05-05T02:49:58.140Z,7.58
2023-05-05T02:50:58.156Z,7.57
2023-05-05T02:51:58.185Z,7.58
2023-05-05T02:52:58.209Z,7.61
2023-05-05T02:53:58.224Z,7.66
2023-05-05T02:54:58.233Z,7.69
2023-05-05T02:55:58.253Z,7.69
2023-05-05T02:56:58.307Z,7.69
2023-05-05T02:57:58.304Z,7.63
2023-05-05T02:58:58.299Z,7.66
2023-05-05T02:59:58.316Z,7.67
2023-05-05T03:00:58.330Z,7.63
2023-05-05T03:01:58.389Z,7.63
2023-05-05T03:02:58.410Z,7.66
2023-05-05T03:03:58.531Z,7.63
2023-05-05T03:04:58.392Z,7.60
2023-05-05T03:05:58.430Z,7.61
2023-05-05T03:06:58.440Z,7.66
2023-05-05T03:07:58.448Z,7.66
2023-05-05T03:08:58.453Z,7.69
2023-05-05T03:09:58.468Z,7.70
2023-05-05T03:10:58.519Z,7.72
2023-05-05T03:11:58.543Z,7.70
2023-05-05T03:12:58.559Z,7.69
2023-05-05T03:13:58.540Z,7.69
2023-05-05T03:14:58.581Z,7.69
2023-05-05T03:15:58.658Z,7.67
2023-05-05T03:16:58.590Z,7.66
2023-05-05T03:17:58.638Z,7.63
2023-05-05T03:18:58.654Z,7.67
2023-05-05T03:19:58.650Z,7.66
2023-05-05T03:20:58.686Z,7.61
2023-05-05T03:21:58.677Z,7.61
2023-05-05T03:22:58.690Z,7.60
2023-05-05T03:23:58.710Z,7.61
2023-05-05T03:24:58.735Z,7.69
2023-05-05T03:25:58.744Z,7.70
2023-05-05T03:26:58.763Z,7.72
2023-05-05T03:27:58.775Z,7.70
2023-05-05T03:28:58.795Z,7.69
2023-05-05T03:29:58.812Z,7.61
2023-05-05T03:30:58.833Z,7.60
2023-05-05T03:31:58.924Z,7.58
2023-05-05T03:32:58.904Z,7.54
2023-05-05T03:33:58.903Z,7.54
2023-05-05T03:34:58.904Z,7.51
2023-05-05T03:35:58.904Z,7.48
2023-05-05T03:36:58.930Z,7.47
2023-05-05T03:37:58.945Z,7.48
2023-05-05T03:38:58.990Z,7.47
2023-05-05T03:39:58.994Z,7.45
2023-05-05T03:40:59.002Z,7.45
2023-05-05T03:41:59.021Z,7.43
2023-05-05T03:42:59.045Z,7.45
2023-05-05T03:43:59.071Z,7.40
2023-05-05T03:44:59.068Z,7.39
2023-05-05T03:45:59.126Z,7.39
2023-05-05T03:46:59.105Z,7.39
2023-05-05T03:47:59.195Z,7.39
2023-05-05T03:48:59.164Z,7.35
2023-05-05T03:49:59.168Z,7.35
2023-05-05T03:50:59.180Z,7.36
2023-05-05T03:51:59.194Z,7.39
2023-05-05T03:52:59.236Z,7.40
2023-05-05T03:53:59.232Z,7.40
2023-05-05T03:54:59.252Z,7.40
2023-05-05T03:55:59.270Z,7.39
2023-05-05T03:56:59.297Z,7.38
2023-05-05T03:57:59.327Z,7.36
2023-05-05T03:58:59.327Z,7.36
2023-05-05T03:59:59.337Z,7.35
2023-05-05T04:00:59.357Z,7.36
2023-05-05T04:01:59.415Z,7.35
2023-05-05T04:02:59.543Z,7.38
2023-05-05T04:03:59.454Z,7.39
2023-05-05T04:04:59.428Z,7.39
2023-05-05T04:05:59.442Z,7.36
2023-05-05T04:06:59.474Z,7.36
2023-05-05T04:07:59.495Z,7.38
2023-05-05T04:08:59.495Z,7.39
2023-05-05T04:09:59.511Z,7.42
2023-05-05T04:10:59.528Z,7.42
2023-05-05T04:11:59.547Z,7.40
2023-05-05T04:12:59.577Z,7.43
2023-05-05T04:13:59.569Z,7.47
2023-05-05T04:14:59.615Z,7.48
2023-05-05T04:15:59.722Z,7.51
2023-05-05T04:16:59.630Z,7.48
2023-05-05T04:17:59.695Z,7.48
2023-05-05T04:18:59.673Z,7.48
2023-05-05T04:19:59.683Z,7.47
2023-05-05T04:20:59.724Z,7.48
2023-05-05T04:21:59.718Z,7.51
2023-05-05T04:22:59.734Z,7.50
2023-05-05T04:23:59.766Z,7.50
2023-05-05T04:24:59.775Z,7.50
2023-05-05T04:25:59.805Z,7.48
2023-05-05T04:26:59.808Z,7.51
2023-05-05T04:27:59.827Z,7.51
2023-05-05T04:28:59.848Z,7.54
2023-05-05T04:29:59.890Z,7.58
2023-05-05T04:30:59.918Z,7.61
2023-05-05T04:31:59.899Z,7.66
2023-05-05T04:32:59.962Z,7.69
2023-05-05T04:33:59.931Z,7.69
2023-05-05T04:34:59.990Z,7.73
2023-05-05T04:35:59.956Z,7.75
2023-05-05T04:36:59.983Z,7.76
2023-05-05T04:37:59.985Z,7.77
2023-05-05T04:39:00.070Z,7.77
2023-05-05T04:40:00.037Z,7.77
2023-05-05T04:41:00.097Z,7.79
2023-05-05T04:42:00.077Z,7.80
2023-05-05T04:43:00.100Z,7.80
2023-05-05T04:44:00.154Z,7.82
2023-05-05T04:45:00.160Z,7.80
2023-05-05T04:46:00.163Z,7.80
2023-05-05T04:47:00.156Z,7.83
2023-05-05T04:48:00.207Z,7.83
2023-05-05T04:49:00.186Z,7.83
2023-05-05T04:50:00.228Z,7.87
2023-05-05T04:51:00.220Z,7.90
2023-05-05T04:52:00.248Z,7.91
2023-05-05T04:53:00.256Z,7.93
2023-05-05T04:54:00.277Z,7.97
2023-05-05T04:55:00.293Z,8.01
2023-05-05T04:56:00.303Z,8.05
2023-05-05T04:57:00.338Z,8.03
2023-05-05T04:58:00.366Z,8.06
2023-05-05T04:59:00.365Z,8.06
2023-05-05T05:00:00.397Z,8.09
2023-05-05T05:01:00.385Z,8.10
2023-05-05T05:02:00.452Z,8.10
2023-05-05T05:03:00.523Z,8.09
2023-05-05T05:04:00.550Z,8.19
2023-05-05T05:05:00.495Z,8.26
2023-05-05T05:06:00.481Z,8.26
2023-05-05T05:07:00.500Z,8.24
2023-05-05T05:08:00.535Z,8.23
2023-05-05T05:09:00.565Z,8.23
2023-05-05T05:10:00.543Z,8.31
2023-05-05T05:11:00.594Z,8.49
2023-05-05T05:12:00.616Z,8.63
2023-05-05T05:13:00.680Z,8.76
2023-05-05T05:14:00.598Z,8.87
2023-05-05T05:15:00.618Z,8.99
2023-05-05T05:16:00.655Z,9.04
2023-05-05T05:17:00.675Z,9.14
2023-05-05T05:18:00.747Z,9.23
2023-05-05T05:19:01.851Z,9.32
2023-05-05T05:20:00.714Z,9.41
2023-05-05T05:21:00.746Z,9.47
2023-05-05T05:22:00.757Z,9.58
2023-05-05T05:23:00.766Z,9.64
2023-05-05T05:24:00.771Z,9.72
2023-05-05T05:25:00.786Z,9.79
2023-05-05T05:26:00.817Z,9.84
2023-05-05T05:27:00.819Z,9.92
2023-05-05T05:28:09.627Z,10.01
2023-05-05T05:29:00.850Z,10.04
2023-05-05T05:30:00.860Z,10.12
2023-05-05T05:31:00.878Z,10.20
2023-05-05T05:32:00.914Z,10.28
2023-05-05T05:33:00.946Z,10.34
2023-05-05T05:34:00.921Z,10.42
2023-05-05T05:35:00.999Z,10.54
2023-05-05T05:36:00.982Z,10.61
2023-05-05T05:37:00.956Z,10.69
2023-05-05T05:38:00.974Z,10.78
2023-05-05T05:39:00.978Z,10.86
2023-05-05T05:40:01.012Z,10.94
2023-05-05T05:41:01.033Z,11.04
2023-05-05T05:42:01.050Z,11.17
2023-05-05T05:43:01.050Z,11.26
2023-05-05T05:44:01.051Z,11.40
2023-05-05T05:45:01.092Z,11.51
2023-05-05T05:46:01.124Z,11.62
2023-05-05T05:47:01.120Z,11.73
2023-05-05T05:48:01.156Z,11.87
2023-05-05T05:49:01.185Z,12.03
2023-05-05T05:50:01.160Z,12.20
2023-05-05T05:51:01.168Z,12.29
2023-05-05T05:52:01.182Z,12.42
2023-05-05T05:53:01.224Z,12.54
2023-05-05T05:54:01.225Z,12.67
2023-05-05T05:55:01.229Z,12.76
2023-05-05T05:56:01.230Z,12.80
2023-05-05T05:57:01.253Z,12.86
2023-05-05T05:58:01.271Z,12.94
2023-05-05T05:59:01.304Z,12.97
2023-05-05T06:00:02.270Z,13.00
2023-05-05T06:01:01.314Z,13.11
2023-05-05T06:02:01.461Z,13.13
2023-05-05T06:03:01.460Z,13.20
2023-05-05T06:04:01.489Z,13.25
2023-05-05T06:05:01.364Z,13.33
2023-05-05T06:06:01.390Z,13.39
2023-05-05T06:07:01.400Z,13.52
2023-05-05T06:08:01.432Z,13.60
2023-05-05T06:09:01.425Z,13.68
2023-05-05T06:10:10.859Z,13.74
2023-05-05T06:11:01.456Z,13.81
2023-05-05T06:12:01.471Z,13.90
2023-05-05T06:13:01.519Z,13.96
2023-05-05T06:14:01.499Z,14.05
2023-05-05T06:15:01.508Z,14.07
2023-05-05T06:16:01.516Z,14.14
2023-05-05T06:17:01.560Z,14.15
2023-05-05T06:18:01.589Z,14.14
2023-05-05T06:19:01.574Z,14.25
2023-05-05T06:20:01.590Z,14.30
2023-05-05T06:21:01.601Z,14.36
2023-05-05T06:22:01.659Z,14.50
2023-05-05T06:23:01.635Z,14.59
2023-05-05T06:24:01.649Z,14.69
2023-05-05T06:25:01.667Z,14.70
2023-05-05T06:26:01.708Z,14.69
2023-05-05T06:27:01.711Z,14.63
2023-05-05T06:28:01.713Z,14.62
2023-05-05T06:29:01.720Z,14.60
2023-05-05T06:30:01.755Z,14.59
2023-05-05T06:31:01.785Z,14.58
2023-05-05T06:32:01.759Z,14.60
2023-05-05T06:33:01.829Z,14.60
2023-05-05T06:34:01.797Z,14.63
2023-05-05T06:35:01.816Z,14.69
2023-05-05T06:36:01.842Z,14.73
2023-05-05T06:37:01.838Z,14.78
2023-05-05T06:38:01.862Z,14.84
2023-05-05T06:39:01.884Z,14.86
2023-05-05T06:40:01.907Z,14.88
2023-05-05T06:41:01.901Z,14.94
2023-05-05T06:42:01.913Z,15.03
2023-05-05T06:43:01.935Z,15.09
2023-05-05T06:44:01.950Z,15.18
2023-05-05T06:45:01.985Z,15.22
2023-05-05T06:46:01.976Z,15.24
2023-05-05T06:47:02.071Z,15.25
2023-05-05T06:48:02.066Z,15.25
2023-05-05T06:49:02.134Z,15.27
2023-05-05T06:50:02.053Z,15.31
2023-05-05T06:51:02.929Z,15.36
2023-05-05T06:52:02.063Z,15.42
2023-05-05T06:53:02.083Z,15.49
2023-05-05T06:54:02.120Z,15.55
2023-05-05T06:55:02.131Z,15.61
2023-05-05T06:56:02.127Z,15.67
2023-05-05T06:57:02.137Z,15.73
2023-05-05T06:58:02.161Z,15.77
2023-05-05T06:59:02.189Z,15.84
2023-05-05T07:00:02.217Z,15.92
2023-05-05T07:01:02.237Z,16.01
2023-05-05T07:02:02.243Z,16.08
2023-05-05T07:03:02.329Z,16.09
2023-05-05T07:04:02.288Z,16.05
2023-05-05T07:05:02.281Z,16.05
2023-05-05T07:06:02.282Z,16.12
2023-05-05T07:07:02.309Z,16.15
2023-05-05T07:08:02.339Z,16.24
2023-05-05T07:09:02.342Z,16.28
2023-05-05T07:10:02.359Z,16.24
2023-05-05T07:11:02.375Z,16.24
2023-05-05T07:12:02.394Z,16.29
2023-05-05T07:13:02.443Z,16.33
2023-05-05T07:14:02.412Z,16.39
2023-05-05T07:15:12.283Z,16.41
2023-05-05T07:16:02.456Z,16.43
2023-05-05T07:17:02.543Z,16.47
2023-05-05T07:18:02.520Z,16.49
2023-05-05T07:19:02.500Z,16.57
2023-05-05T07:20:02.502Z,16.68
2023-05-05T07:21:02.525Z,16.68
2023-05-05T07:22:02.565Z,16.69
2023-05-05T07:23:02.569Z,16.72
2023-05-05T07:24:02.564Z,16.78
2023-05-05T07:25:02.581Z,16.76
2023-05-05T07:26:02.598Z,16.75
2023-05-05T07:27:02.632Z,16.72
2023-05-05T07:28:02.628Z,16.81
2023-05-05T07:29:02.644Z,16.86
2023-05-05T07:30:05.059Z,16.96
2023-05-05T07:31:02.691Z,17.02
2023-05-05T07:32:02.760Z,17.08
2023-05-05T07:33:02.759Z,17.12
2023-05-05T07:34:02.711Z,17.19
2023-05-05T07:35:02.758Z,17.27
2023-05-05T07:36:02.814Z,17.36
2023-05-05T07:37:02.746Z,17.42
2023-05-05T07:38:02.761Z,17.45
2023-05-05T07:39:02.768Z,17.48
2023-05-05T07:40:02.787Z,17.48
2023-05-05T07:41:02.815Z,17.49
2023-05-05T07:42:02.815Z,17.57
2023-05-05T07:43:02.829Z,17.59
2023-05-05T07:44:02.833Z,17.60
2023-05-05T07:45:02.952Z,17.68
2023-05-05T07:46:02.896Z,17.78
2023-05-05T07:47:02.873Z,17.89
2023-05-05T07:48:02.956Z,18.00
2023-05-05T07:49:02.904Z,18.05
2023-05-05T07:50:03.058Z,18.08
2023-05-05T07:51:03.050Z,18.22
2023-05-05T07:52:02.959Z,18.31
2023-05-05T07:53:13.731Z,18.35
2023-05-05T07:54:03.020Z,18.33
2023-05-05T07:55:03.005Z,18.28
2023-05-05T07:56:03.022Z,18.28
2023-05-05T07:57:03.027Z,18.28
2023-05-05T07:58:03.047Z,18.29
2023-05-05T07:59:03.077Z,18.28
2023-05-05T08:00:03.094Z,18.28
2023-05-05T08:01:03.103Z,18.34
2023-05-05T08:02:03.147Z,18.35
2023-05-05T08:03:03.224Z,18.41
2023-05-05T08:04:03.233Z,18.38
2023-05-05T08:05:03.168Z,18.37
2023-05-05T08:06:03.180Z,18.45
2023-05-05T08:07:03.195Z,18.50
2023-05-05T08:08:03.234Z,18.56
2023-05-05T08:09:03.243Z,18.55
2023-05-05T08:10:03.251Z,18.63
2023-05-05T08:11:03.285Z,18.65
2023-05-05T08:12:03.268Z,18.74
2023-05-05T08:13:03.362Z,18.89
2023-05-05T08:14:03.297Z,19.02
2023-05-05T08:15:03.317Z,19.15
2023-05-05T08:16:03.385Z,19.26
2023-05-05T08:17:03.371Z,19.31
2023-05-05T08:18:03.453Z,19.26
2023-05-05T08:19:05.033Z,19.31
2023-05-05T08:20:03.389Z,19.39
2023-05-05T08:21:03.403Z,19.37
2023-05-05T08:22:03.465Z,19.40
2023-05-05T08:23:03.463Z,19.48
2023-05-05T08:24:03.454Z,19.64
2023-05-05T08:25:03.477Z,19.82
2023-05-05T08:26:03.478Z,20.02
2023-05-05T08:27:03.515Z,20.13
2023-05-05T08:28:03.512Z,20.19
2023-05-05T08:29:03.530Z,20.24
2023-05-05T08:30:03.542Z,20.19
2023-05-05T08:31:03.593Z,20.18
2023-05-05T08:32:03.597Z,20.22
2023-05-05T08:33:03.616Z,20.24
2023-05-05T08:34:03.598Z,20.18
2023-05-05T08:35:03.609Z,20.16
2023-05-05T08:36:03.648Z,20.19
2023-05-05T08:37:03.638Z,20.18
2023-05-05T08:38:03.673Z,20.22
2023-05-05T08:39:03.661Z,20.25
2023-05-05T08:40:03.696Z,20.25
2023-05-05T08:41:03.733Z,20.24
2023-05-05T08:42:03.724Z,20.19
2023-05-05T08:43:03.723Z,20.24
2023-05-05T08:44:03.739Z,20.28
2023-05-05T08:45:03.765Z,20.37
2023-05-05T08:46:03.796Z,20.44
2023-05-05T08:47:03.897Z,20.55
2023-05-05T08:48:03.872Z,20.62
2023-05-05T08:49:03.837Z,20.69
2023-05-05T08:50:03.849Z,20.81
2023-05-05T08:51:09.870Z,20.92
2023-05-05T08:52:03.882Z,20.92
2023-05-05T08:53:03.898Z,20.87
2023-05-05T08:54:03.969Z,20.95
2023-05-05T08:55:03.933Z,21.00
2023-05-05T08:56:03.985Z,21.07
2023-05-05T08:57:03.942Z,21.07
2023-05-05T08:58:03.956Z,21.09
2023-05-05T08:59:03.977Z,21.03
2023-05-05T09:00:04.026Z,21.02
2023-05-05T09:01:04.069Z,20.96
2023-05-05T09:02:04.053Z,20.97
2023-05-05T09:03:04.355Z,20.95
2023-05-05T09:04:04.062Z,20.99
2023-05-05T09:05:04.076Z,21.05
2023-05-05T09:06:04.105Z,21.15
2023-05-05T09:07:04.098Z,21.29
2023-05-05T09:08:04.112Z,21.37
2023-05-05T09:09:04.134Z,21.43
2023-05-05T09:10:04.148Z,21.54
2023-05-05T09:11:04.155Z,21.58
2023-05-05T09:12:04.175Z,21.61
2023-05-05T09:13:04.231Z,21.60
2023-05-05T09:14:04.215Z,21.57
2023-05-05T09:15:04.234Z,21.54
2023-05-05T09:16:04.270Z,21.48
2023-05-05T09:17:04.393Z,21.54
2023-05-05T09:18:04.326Z,21.57
2023-05-05T09:19:04.318Z,21.55
2023-05-05T09:20:04.333Z,21.57
2023-05-05T09:21:04.302Z,21.70
2023-05-05T09:22:04.325Z,21.76
2023-05-05T09:23:04.352Z,21.76
2023-05-05T09:24:08.117Z,21.80
2023-05-05T09:25:04.361Z,21.77
2023-05-05T09:26:04.438Z,21.73
2023-05-05T09:27:04.410Z,21.79
2023-05-05T09:28:04.441Z,21.76
2023-05-05T09:29:04.438Z,21.70
2023-05-05T09:30:04.459Z,21.70
2023-05-05T09:31:04.500Z,21.75
2023-05-05T09:32:04.504Z,21.67
2023-05-05T09:33:04.534Z,21.51
2023-05-05T09:34:04.508Z,21.46
2023-05-05T09:35:04.517Z,21.40
2023-05-05T09:36:04.562Z,21.35
2023-05-05T09:37:04.571Z,21.25
2023-05-05T09:38:04.552Z,21.24
2023-05-05T09:39:04.574Z,21.17
2023-05-05T09:40:04.626Z,21.07
2023-05-05T09:41:04.600Z,21.05
2023-05-05T09:42:04.608Z,21.06
2023-05-05T09:43:04.625Z,21.12
2023-05-05T09:44:04.638Z,21.06
2023-05-05T09:45:04.676Z,21.07
2023-05-05T09:46:04.720Z,21.11
2023-05-05T09:47:09.540Z,21.05
2023-05-05T09:48:04.761Z,21.00
2023-05-05T09:49:04.703Z,21.02
2023-05-05T09:50:04.728Z,21.02
2023-05-05T09:51:04.748Z,21.03
2023-05-05T09:52:04.759Z,21.05
2023-05-05T09:53:04.769Z,20.96
2023-05-05T09:54:04.778Z,20.85
2023-05-05T09:55:04.789Z,20.77
2023-05-05T09:56:04.832Z,20.75
2023-05-05T09:57:05.033Z,20.67
2023-05-05T09:58:04.844Z,20.59
2023-05-05T09:59:04.849Z,20.58
2023-05-05T10:00:04.888Z,20.69
2023-05-05T10:01:05.119Z,20.69
2023-05-05T10:02:04.895Z,20.69
2023-05-05T10:03:04.917Z,20.75
2023-05-05T10:04:04.923Z,20.92
2023-05-05T10:05:04.983Z,21.05
2023-05-05T10:06:04.944Z,21.06
2023-05-05T10:07:04.959Z,21.17
2023-05-05T10:08:04.976Z,21.18
2023-05-05T10:09:04.986Z,21.22
2023-05-05T10:10:05.097Z,21.35
2023-05-05T10:11:05.035Z,21.42
2023-05-05T10:12:05.045Z,21.45
2023-05-05T10:13:05.105Z,21.50
2023-05-05T10:14:05.075Z,21.57
2023-05-05T10:15:05.093Z,21.62
2023-05-05T10:16:05.136Z,21.69
2023-05-05T10:17:05.096Z,21.76
2023-05-05T10:18:07.830Z,21.80
2023-05-05T10:19:05.147Z,21.75
2023-05-05T10:20:05.153Z,21.79
2023-05-05T10:21:05.153Z,21.79
2023-05-05T10:22:05.176Z,21.72
2023-05-05T10:23:05.183Z,21.73
2023-05-05T10:24:05.224Z,21.76
2023-05-05T10:25:05.215Z,21.80
2023-05-05T10:26:05.232Z,21.75
2023-05-05T10:27:05.242Z,21.72
2023-05-05T10:28:05.287Z,21.61
2023-05-05T10:29:05.301Z,21.58
2023-05-05T10:30:05.321Z,21.61
2023-05-05T10:31:13.190Z,21.66
2023-05-05T10:32:18.916Z,21.72
2023-05-05T10:33:27.189Z,21.73
2023-05-05T10:34:05.541Z,21.79
2023-05-05T10:35:05.397Z,21.77
2023-05-05T10:36:05.404Z,21.83
2023-05-05T10:37:05.845Z,21.91
2023-05-05T10:38:05.436Z,21.89
2023-05-05T10:39:05.452Z,21.92
2023-05-05T10:40:05.573Z,21.88
2023-05-05T10:41:05.481Z,21.83
2023-05-05T10:42:05.538Z,21.76
2023-05-05T10:43:05.503Z,21.73
2023-05-05T10:44:05.540Z,21.70
2023-05-05T10:45:05.654Z,21.67
2023-05-05T10:46:05.608Z,21.67
2023-05-05T10:47:05.582Z,21.62
2023-05-05T10:48:05.703Z,21.61
2023-05-05T10:49:05.597Z,21.58
2023-05-05T10:50:05.717Z,21.58
2023-05-05T10:51:05.628Z,21.66
2023-05-05T10:52:05.674Z,21.77
2023-05-05T10:53:05.674Z,21.89
2023-05-05T10:54:05.708Z,22.00
2023-05-05T10:55:05.693Z,22.13
2023-05-05T10:56:05.726Z,22.20
2023-05-05T10:57:05.732Z,22.20
2023-05-05T10:58:05.737Z,22.23
2023-05-05T10:59:05.760Z,22.28
2023-05-05T11:00:05.891Z,22.29
2023-05-05T11:01:05.815Z,22.36
2023-05-05T11:02:05.796Z,22.39
2023-05-05T11:03:05.910Z,22.44
2023-05-05T11:04:05.834Z,22.50
2023-05-05T11:05:05.850Z,22.50
2023-05-05T11:06:05.892Z,22.53
2023-05-05T11:07:05.872Z,22.47
2023-05-05T11:08:05.893Z,22.32
2023-05-05T11:09:05.903Z,22.06
2023-05-05T11:10:06.236Z,21.93
2023-05-05T11:11:05.938Z,21.89
2023-05-05T11:12:05.938Z,21.88
2023-05-05T11:13:05.975Z,21.92
2023-05-05T11:14:05.956Z,22.00
2023-05-05T11:15:05.985Z,22.14
2023-05-05T11:16:06.040Z,22.18
2023-05-05T11:17:06.003Z,22.25
2023-05-05T11:18:07.951Z,22.30
2023-05-05T11:19:06.042Z,22.39
2023-05-05T11:20:06.297Z,22.45
2023-05-05T11:21:06.063Z,22.48
2023-05-05T11:22:06.148Z,22.53
2023-05-05T11:23:06.101Z,22.48
2023-05-05T11:24:06.127Z,22.39
2023-05-05T11:25:06.156Z,22.26
2023-05-05T11:26:06.154Z,22.29
2023-05-05T11:27:06.149Z,22.25
2023-05-05T11:28:06.170Z,22.33
2023-05-05T11:29:06.201Z,22.43
2023-05-05T11:30:06.291Z,22.54
2023-05-05T11:31:06.235Z,22.63
2023-05-05T11:32:06.237Z,22.63
2023-05-05T11:33:06.291Z,22.59
2023-05-05T11:34:06.287Z,22.70
2023-05-05T11:35:06.343Z,22.78
2023-05-05T11:36:06.935Z,22.85
2023-05-05T11:37:06.299Z,22.87
2023-05-05T11:38:06.357Z,22.73
2023-05-05T11:39:06.331Z,22.72
2023-05-05T11:40:06.620Z,22.69
2023-05-05T11:41:06.352Z,22.75
2023-05-05T11:42:10.493Z,22.80
2023-05-05T11:43:06.399Z,22.80
2023-05-05T11:44:06.390Z,22.85
2023-05-05T11:45:06.415Z,22.96
2023-05-05T11:46:06.483Z,22.94
2023-05-05T11:47:06.460Z,22.72
2023-05-05T11:48:07.049Z,22.63
2023-05-05T11:49:06.486Z,22.60
2023-05-05T11:50:06.694Z,22.66
2023-05-05T11:51:06.499Z,22.81
2023-05-05T11:52:06.540Z,22.83
2023-05-05T11:53:06.526Z,22.81
2023-05-05T11:54:06.564Z,22.63
2023-05-05T11:55:06.562Z,22.44
2023-05-05T11:56:06.577Z,22.54
2023-05-05T11:57:06.610Z,22.75
2023-05-05T11:58:06.590Z,22.93
2023-05-05T11:59:06.644Z,23.03
2023-05-05T12:00:06.745Z,23.18
2023-05-05T12:01:06.653Z,23.21
2023-05-05T12:02:06.668Z,23.15
2023-05-05T12:03:06.863Z,23.12
2023-05-05T12:04:06.789Z,23.03
2023-05-05T12:05:06.705Z,22.88
2023-05-05T12:06:06.731Z,22.87
2023-05-05T12:07:06.748Z,22.85
2023-05-05T12:08:06.753Z,22.87
2023-05-05T12:09:06.778Z,22.99
2023-05-05T12:10:06.973Z,23.10
2023-05-05T12:11:06.837Z,23.17
2023-05-05T12:12:06.798Z,23.13
2023-05-05T12:13:06.889Z,23.06
2023-05-05T12:14:06.865Z,23.10
2023-05-05T12:15:06.889Z,23.13
2023-05-05T12:16:06.888Z,23.13
2023-05-05T12:17:06.872Z,23.08
2023-05-05T12:18:06.930Z,23.03
2023-05-05T12:19:06.912Z,23.05
2023-05-05T12:20:07.247Z,23.02
2023-05-05T12:21:06.932Z,22.99
2023-05-05T12:22:06.939Z,22.99
2023-05-05T12:23:06.958Z,23.02
2023-05-05T12:24:06.994Z,23.08
2023-05-05T12:25:07.000Z,23.15
2023-05-05T12:26:07.000Z,23.24
2023-05-05T12:27:07.018Z,23.32
2023-05-05T12:28:07.058Z,23.32
2023-05-05T12:29:07.076Z,23.32
2023-05-05T12:30:07.345Z,23.39
2023-05-05T12:31:07.121Z,23.39
2023-05-05T12:32:07.203Z,23.36
2023-05-05T12:33:07.124Z,23.31
2023-05-05T12:34:07.165Z,23.25
2023-05-05T12:35:07.151Z,23.32
2023-05-05T12:36:07.157Z,23.44
2023-05-05T12:37:07.166Z,23.47
2023-05-05T12:38:07.208Z,23.43
2023-05-05T12:39:07.251Z,23.39
2023-05-05T12:40:07.409Z,23.34
2023-05-05T12:41:07.224Z,23.37
2023-05-05T12:42:07.300Z,23.46
2023-05-05T12:43:07.277Z,23.47
2023-05-05T12:44:07.269Z,23.55
2023-05-05T12:45:07.279Z,23.59
2023-05-05T12:46:07.350Z,23.56
2023-05-05T12:47:07.326Z,23.56
2023-05-05T12:48:07.396Z,23.65
2023-05-05T12:49:07.344Z,23.68
2023-05-05T12:50:07.573Z,23.73
2023-05-05T12:51:07.377Z,23.77
2023-05-05T12:52:07.377Z,23.81
2023-05-05T12:53:07.416Z,23.87
2023-05-05T12:54:07.410Z,23.86
2023-05-05T12:55:07.848Z,23.91
2023-05-05T12:56:07.428Z,23.88
2023-05-05T12:57:07.480Z,23.91
2023-05-05T12:58:07.487Z,23.86
2023-05-05T12:59:07.531Z,23.92
2023-05-05T13:00:07.662Z,23.95
2023-05-05T13:01:07.546Z,24.01
2023-05-05T13:02:07.577Z,24.10
2023-05-05T13:03:07.631Z,24.20
2023-05-05T13:04:07.571Z,24.24